createdAt,value
2022-12-24T00:00:39.087Z,0.00
2022-12-24T00:01:39.048Z,0.00
2022-12-24T00:02:39.102Z,0.00
2022-12-24T00:03:39.326Z,0.00
2022-12-24T00:04:39.026Z,0.00
2022-12-24T00:05:38.988Z,0.00
2022-12-24T00:06:38.992Z,0.00
2022-12-24T00:07:38.977Z,0.00
2022-12-24T00:08:38.967Z,0.00
2022-12-24T00:09:38.971Z,0.00
2022-12-24T00:10:38.945Z,0.00
2022-12-24T00:11:38.934Z,0.00
2022-12-24T00:12:38.958Z,0.00
2022-12-24T00:13:38.914Z,0.00
2022-12-24T00:14:38.924Z,0.00
2022-12-24T00:15:38.887Z,0.00
2022-12-24T00:16:38.969Z,0.00
2022-12-24T00:17:38.871Z,0.00
2022-12-24T00:18:45.423Z,0.00
2022-12-24T00:19:38.878Z,0.00
2022-12-24T00:20:38.843Z,0.00
2022-12-24T00:21:38.841Z,0.00
2022-12-24T00:22:38.820Z,0.00
2022-12-24T00:23:38.845Z,0.00
2022-12-24T00:24:38.840Z,0.00
2022-12-24T00:25:38.805Z,0.00
2022-12-24T00:26:38.787Z,0.00
2022-12-24T00:27:38.781Z,0.00
2022-12-24T00:28:38.752Z,0.00
2022-12-24T00:29:38.758Z,0.00
2022-12-24T00:30:38.807Z,0.00
2022-12-24T00:31:38.717Z,0.00
2022-12-24T00:32:38.714Z,0.00
2022-12-24T00:33:38.745Z,0.00
2022-12-24T00:34:38.781Z,0.00
2022-12-24T00:35:38.697Z,0.00
2022-12-24T00:36:38.690Z,0.00
2022-12-24T00:37:38.656Z,0.00
2022-12-24T00:38:38.690Z,0.00
2022-12-24T00:39:38.640Z,0.00
2022-12-24T00:40:38.655Z,0.00
2022-12-24T00:41:38.611Z,0.00
2022-12-24T00:42:38.608Z,0.00
2022-12-24T00:43:38.594Z,0.00
2022-12-24T00:44:38.595Z,0.00
2022-12-24T00:45:38.614Z,0.00
2022-12-24T00:46:38.700Z,0.00
2022-12-24T00:47:38.550Z,0.00
2022-12-24T00:48:38.551Z,0.00
2022-12-24T00:49:38.540Z,0.00
2022-12-24T00:50:38.553Z,0.00
2022-12-24T00:51:38.608Z,0.00
2022-12-24T00:52:38.502Z,0.00
2022-12-24T00:53:38.487Z,0.00
2022-12-24T00:54:38.485Z,0.00
2022-12-24T00:55:38.492Z,0.00
2022-12-24T00:56:38.465Z,0.00
2022-12-24T00:57:38.443Z,0.00
2022-12-24T00:58:38.441Z,0.00
2022-12-24T00:59:38.427Z,0.00
2022-12-24T01:00:38.453Z,0.00
2022-12-24T01:01:38.537Z,0.00
2022-12-24T01:02:38.695Z,0.00
2022-12-24T01:03:38.468Z,0.00
2022-12-24T01:04:38.375Z,0.00
2022-12-24T01:05:38.390Z,0.00
2022-12-24T01:06:38.348Z,0.00
2022-12-24T01:07:38.367Z,0.00
2022-12-24T01:08:38.330Z,0.00
2022-12-24T01:09:38.325Z,0.00
2022-12-24T01:10:38.330Z,0.00
2022-12-24T01:11:38.294Z,0.00
2022-12-24T01:12:38.353Z,0.00
2022-12-24T01:13:38.347Z,0.00
2022-12-24T01:14:38.328Z,0.00
2022-12-24T01:15:38.386Z,0.00
2022-12-24T01:16:38.303Z,0.00
2022-12-24T01:17:44.779Z,0.00
2022-12-24T01:18:44.288Z,0.00
2022-12-24T01:19:44.765Z,0.00
2022-12-24T01:20:38.281Z,0.00
2022-12-24T01:21:38.259Z,0.00
2022-12-24T01:22:38.249Z,0.00
2022-12-24T01:23:38.250Z,0.00
2022-12-24T01:24:38.216Z,0.00
2022-12-24T01:25:38.232Z,0.00
2022-12-24T01:26:38.197Z,0.00
2022-12-24T01:27:38.190Z,0.00
2022-12-24T01:28:38.173Z,0.00
2022-12-24T01:29:38.157Z,0.00
2022-12-24T01:30:38.180Z,0.00
2022-12-24T01:31:38.187Z,0.00
2022-12-24T01:32:38.132Z,0.00
2022-12-24T01:33:38.123Z,0.00
2022-12-24T01:34:38.118Z,0.00
2022-12-24T01:35:38.119Z,0.00
2022-12-24T01:36:38.091Z,0.00
2022-12-24T01:37:38.075Z,0.00
2022-12-24T01:38:38.067Z,0.00
2022-12-24T01:39:38.055Z,0.00
2022-12-24T01:40:38.080Z,0.00
2022-12-24T01:41:38.031Z,0.00
2022-12-24T01:42:38.048Z,0.00
2022-12-24T01:43:38.012Z,0.00
2022-12-24T01:44:38.004Z,0.00
2022-12-24T01:45:38.026Z,0.00
2022-12-24T01:46:38.072Z,0.00
2022-12-24T01:47:37.987Z,0.00
2022-12-24T01:48:37.961Z,0.00
2022-12-24T01:49:37.951Z,0.00
2022-12-24T01:50:37.936Z,0.00
2022-12-24T01:51:37.945Z,0.00
2022-12-24T01:52:37.930Z,0.00
2022-12-24T01:53:37.903Z,0.00
2022-12-24T01:54:37.917Z,0.00
2022-12-24T01:55:37.893Z,0.00
2022-12-24T01:56:37.901Z,0.00
2022-12-24T01:57:37.868Z,0.00
2022-12-24T01:58:37.855Z,0.00
2022-12-24T01:59:37.845Z,0.00
2022-12-24T02:00:37.833Z,0.00
2022-12-24T02:01:37.998Z,0.00
2022-12-24T02:02:38.067Z,0.00
2022-12-24T02:03:37.881Z,0.00
2022-12-24T02:04:37.801Z,0.00
2022-12-24T02:05:37.822Z,0.00
2022-12-24T02:06:37.791Z,0.00
2022-12-24T02:07:37.757Z,0.00
2022-12-24T02:08:37.750Z,0.00
2022-12-24T02:09:37.731Z,0.00
2022-12-24T02:10:37.723Z,0.00
2022-12-24T02:11:37.737Z,0.00
2022-12-24T02:12:37.715Z,0.00
2022-12-24T02:13:37.692Z,0.00
2022-12-24T02:14:37.686Z,0.00
2022-12-24T02:15:37.707Z,0.00
2022-12-24T02:16:37.723Z,0.00
2022-12-24T02:17:37.646Z,0.00
2022-12-24T02:18:37.676Z,0.00
2022-12-24T02:19:37.629Z,0.00
2022-12-24T02:20:37.643Z,0.00
2022-12-24T02:21:37.644Z,0.00
2022-12-24T02:22:37.600Z,0.00
2022-12-24T02:23:37.593Z,0.00
2022-12-24T02:24:37.591Z,0.00
2022-12-24T02:25:37.583Z,0.00
2022-12-24T02:26:37.582Z,0.00
2022-12-24T02:27:37.550Z,0.00
2022-12-24T02:28:37.531Z,0.00
2022-12-24T02:29:37.527Z,0.00
2022-12-24T02:30:37.533Z,0.00
2022-12-24T02:31:37.594Z,0.00
2022-12-24T02:32:37.499Z,0.00
2022-12-24T02:33:37.487Z,0.00
2022-12-24T02:34:37.481Z,0.00
2022-12-24T02:35:37.486Z,0.00
2022-12-24T02:36:37.475Z,0.00
2022-12-24T02:37:37.449Z,0.00
2022-12-24T02:38:37.436Z,0.00
2022-12-24T02:39:37.432Z,0.00
2022-12-24T02:40:37.423Z,0.00
2022-12-24T02:41:37.442Z,0.00
2022-12-24T02:42:37.388Z,0.00
2022-12-24T02:43:37.384Z,0.00
2022-12-24T02:44:37.460Z,0.00
2022-12-24T02:45:37.360Z,0.00
2022-12-24T02:46:37.400Z,0.00
2022-12-24T02:47:37.348Z,0.00
2022-12-24T02:48:37.322Z,0.00
2022-12-24T02:49:37.318Z,0.00
2022-12-24T02:50:37.318Z,0.00
2022-12-24T02:51:37.332Z,0.00
2022-12-24T02:52:37.276Z,0.00
2022-12-24T02:53:37.304Z,0.00
2022-12-24T02:54:37.259Z,0.00
2022-12-24T02:55:37.260Z,0.00
2022-12-24T02:56:37.290Z,0.00
2022-12-24T02:57:37.284Z,0.00
2022-12-24T02:58:37.230Z,0.00
2022-12-24T02:59:37.234Z,0.00
2022-12-24T03:00:37.223Z,0.00
2022-12-24T03:01:37.366Z,0.00
2022-12-24T03:02:37.333Z,0.00
2022-12-24T03:03:37.179Z,0.00
2022-12-24T03:04:37.159Z,0.00
2022-12-24T03:05:37.156Z,0.00
2022-12-24T03:06:37.170Z,0.00
2022-12-24T03:07:37.147Z,0.00
2022-12-24T03:08:37.122Z,0.00
2022-12-24T03:09:37.105Z,0.00
2022-12-24T03:10:37.093Z,0.00
2022-12-24T03:11:37.096Z,0.00
2022-12-24T03:12:37.095Z,0.00
2022-12-24T03:13:37.074Z,0.00
2022-12-24T03:14:37.058Z,0.00
2022-12-24T03:15:37.049Z,0.00
2022-12-24T03:16:37.089Z,0.00
2022-12-24T03:17:37.053Z,0.00
2022-12-24T03:18:37.019Z,0.00
2022-12-24T03:19:37.010Z,0.00
2022-12-24T03:20:37.004Z,0.00
2022-12-24T03:21:36.986Z,0.00
2022-12-24T03:22:36.996Z,0.00
2022-12-24T03:23:36.972Z,0.00
2022-12-24T03:24:36.955Z,0.00
2022-12-24T03:25:36.940Z,0.00
2022-12-24T03:26:36.931Z,0.00
2022-12-24T03:27:36.963Z,0.00
2022-12-24T03:28:36.910Z,0.00
2022-12-24T03:29:36.900Z,0.00
2022-12-24T03:30:36.883Z,0.00
2022-12-24T03:31:36.925Z,0.00
2022-12-24T03:32:36.885Z,0.00
2022-12-24T03:33:36.861Z,0.00
2022-12-24T03:34:36.845Z,0.00
2022-12-24T03:35:36.852Z,0.00
2022-12-24T03:36:36.829Z,0.00
2022-12-24T03:37:36.839Z,0.00
2022-12-24T03:38:36.822Z,0.00
2022-12-24T03:39:43.283Z,0.00
2022-12-24T03:40:43.279Z,0.00
2022-12-24T03:41:36.779Z,0.00
2022-12-24T03:42:44.577Z,0.00
2022-12-24T03:43:36.761Z,0.00
2022-12-24T03:44:36.735Z,0.00
2022-12-24T03:45:36.773Z,0.00
2022-12-24T03:46:36.722Z,0.00
2022-12-24T03:47:36.747Z,0.00
2022-12-24T03:48:36.746Z,0.00
2022-12-24T03:49:36.711Z,0.00
2022-12-24T03:50:36.678Z,0.00
2022-12-24T03:51:36.681Z,0.00
2022-12-24T03:52:36.700Z,0.00
2022-12-24T03:53:36.655Z,0.00
2022-12-24T03:54:36.639Z,0.00
2022-12-24T03:55:36.644Z,0.00
2022-12-24T03:56:36.623Z,0.00
2022-12-24T03:57:36.634Z,0.00
2022-12-24T03:58:36.602Z,0.00
2022-12-24T03:59:36.587Z,0.00
2022-12-24T04:00:36.672Z,0.00
2022-12-24T04:01:36.703Z,0.00
2022-12-24T04:02:36.748Z,0.00
2022-12-24T04:03:36.547Z,0.00
2022-12-24T04:04:36.537Z,0.00
2022-12-24T04:05:36.528Z,0.00
2022-12-24T04:06:36.515Z,0.00
2022-12-24T04:07:36.535Z,0.00
2022-12-24T04:08:36.495Z,0.00
2022-12-24T04:09:36.485Z,0.00
2022-12-24T04:10:36.501Z,0.00
2022-12-24T04:11:36.479Z,0.00
2022-12-24T04:12:36.509Z,0.00
2022-12-24T04:13:36.461Z,0.00
2022-12-24T04:14:36.428Z,0.00
2022-12-24T04:15:36.430Z,0.00
2022-12-24T04:16:36.477Z,0.00
2022-12-24T04:17:36.419Z,0.00
2022-12-24T04:18:36.446Z,0.00
2022-12-24T04:19:36.390Z,0.00
2022-12-24T04:20:36.401Z,0.00
2022-12-24T04:21:36.361Z,0.00
2022-12-24T04:22:36.373Z,0.00
2022-12-24T04:23:36.355Z,0.00
2022-12-24T04:24:36.329Z,0.00
2022-12-24T04:25:36.321Z,0.00
2022-12-24T04:26:36.314Z,0.00
2022-12-24T04:27:36.336Z,0.00
2022-12-24T04:28:36.286Z,0.00
2022-12-24T04:29:36.276Z,0.00
2022-12-24T04:30:36.262Z,0.00
2022-12-24T04:31:36.334Z,0.00
2022-12-24T04:32:36.274Z,0.00
2022-12-24T04:33:36.241Z,0.00
2022-12-24T04:34:36.221Z,0.00
2022-12-24T04:35:36.213Z,0.00
2022-12-24T04:36:36.201Z,0.00
2022-12-24T04:37:36.217Z,0.00
2022-12-24T04:38:36.186Z,0.00
2022-12-24T04:39:36.185Z,0.00
2022-12-24T04:40:36.172Z,0.00
2022-12-24T04:41:36.153Z,0.00
2022-12-24T04:42:36.147Z,0.00
2022-12-24T04:43:36.153Z,0.00
2022-12-24T04:44:36.123Z,0.00
2022-12-24T04:45:36.146Z,0.00
2022-12-24T04:46:36.112Z,0.00
2022-12-24T04:47:36.094Z,0.00
2022-12-24T04:48:36.111Z,0.00
2022-12-24T04:49:36.069Z,0.00
2022-12-24T04:50:36.051Z,0.00
2022-12-24T04:51:36.049Z,0.00
2022-12-24T04:52:36.052Z,0.00
2022-12-24T04:53:36.057Z,0.00
2022-12-24T04:54:36.013Z,0.00
2022-12-24T04:55:36.017Z,0.00
2022-12-24T04:56:36.026Z,0.00
2022-12-24T04:57:35.995Z,0.00
2022-12-24T04:58:36.013Z,0.00
2022-12-24T04:59:35.967Z,0.00
2022-12-24T05:00:35.958Z,0.00
2022-12-24T05:01:36.080Z,0.00
2022-12-24T05:02:36.193Z,0.00
2022-12-24T05:03:36.027Z,0.00
2022-12-24T05:04:35.922Z,0.00
2022-12-24T05:05:35.915Z,0.00
2022-12-24T05:06:35.898Z,0.00
2022-12-24T05:07:35.902Z,0.00
2022-12-24T05:08:35.896Z,0.00
2022-12-24T05:09:35.873Z,0.00
2022-12-24T05:10:35.850Z,0.00
2022-12-24T05:11:35.844Z,0.00
2022-12-24T05:12:35.834Z,0.00
2022-12-24T05:13:42.491Z,0.00
2022-12-24T05:14:35.815Z,0.00
2022-12-24T05:15:35.814Z,0.00
2022-12-24T05:16:35.822Z,0.00
2022-12-24T05:17:35.803Z,0.00
2022-12-24T05:18:35.800Z,0.00
2022-12-24T05:19:35.759Z,0.00
2022-12-24T05:20:35.746Z,0.00
2022-12-24T05:21:35.747Z,0.00
2022-12-24T05:22:43.203Z,0.00
2022-12-24T05:23:43.613Z,0.00
2022-12-24T05:24:35.706Z,0.00
2022-12-24T05:25:35.694Z,0.00
2022-12-24T05:26:35.687Z,0.00
2022-12-24T05:27:35.714Z,0.00
2022-12-24T05:28:35.691Z,0.00
2022-12-24T05:29:35.658Z,0.00
2022-12-24T05:30:35.684Z,0.00
2022-12-24T05:31:35.666Z,0.00
2022-12-24T05:32:35.621Z,0.00
2022-12-24T05:33:35.643Z,0.00
2022-12-24T05:34:35.619Z,0.00
2022-12-24T05:35:35.603Z,0.00
2022-12-24T05:36:35.602Z,0.00
2022-12-24T05:37:35.583Z,0.00
2022-12-24T05:38:35.589Z,0.00
2022-12-24T05:39:35.584Z,0.00
2022-12-24T05:40:35.575Z,0.00
2022-12-24T05:41:35.575Z,0.00
2022-12-24T05:42:35.550Z,0.00
2022-12-24T05:43:35.560Z,0.00
2022-12-24T05:44:35.540Z,0.00
2022-12-24T05:45:35.527Z,0.00
2022-12-24T05:46:35.539Z,0.00
2022-12-24T05:47:41.198Z,0.00
2022-12-24T05:48:35.480Z,0.00
2022-12-24T05:49:35.484Z,0.00
2022-12-24T05:50:35.448Z,0.00
2022-12-24T05:51:35.430Z,0.00
2022-12-24T05:52:35.423Z,0.00
2022-12-24T05:53:35.417Z,0.00
2022-12-24T05:54:35.413Z,0.00
2022-12-24T05:55:35.385Z,0.00
2022-12-24T05:56:35.384Z,0.00
2022-12-24T05:57:35.376Z,0.00
2022-12-24T05:58:35.367Z,0.00
2022-12-24T05:59:35.373Z,0.00
2022-12-24T06:00:35.339Z,0.00
2022-12-24T06:01:41.868Z,0.00
2022-12-24T06:02:35.404Z,0.00
2022-12-24T06:03:41.813Z,0.00
2022-12-24T06:04:35.427Z,0.00
2022-12-24T06:05:35.288Z,0.00
2022-12-24T06:06:35.284Z,0.00
2022-12-24T06:07:35.278Z,0.00
2022-12-24T06:08:35.281Z,0.00
2022-12-24T06:09:35.282Z,0.00
2022-12-24T06:10:35.226Z,0.00
2022-12-24T06:11:35.231Z,0.00
2022-12-24T06:12:35.224Z,0.00
2022-12-24T06:13:35.242Z,0.00
2022-12-24T06:14:35.214Z,0.00
2022-12-24T06:15:35.273Z,0.00
2022-12-24T06:16:35.242Z,0.00
2022-12-24T06:17:35.155Z,0.00
2022-12-24T06:18:35.164Z,0.00
2022-12-24T06:19:35.162Z,0.00
2022-12-24T06:20:35.120Z,0.00
2022-12-24T06:21:35.128Z,0.00
2022-12-24T06:22:35.145Z,0.00
2022-12-24T06:23:35.098Z,0.00
2022-12-24T06:24:35.115Z,0.00
2022-12-24T06:25:35.076Z,0.00
2022-12-24T06:26:35.066Z,0.00
2022-12-24T06:27:35.058Z,0.00
2022-12-24T06:28:35.051Z,0.00
2022-12-24T06:29:35.064Z,0.00
2022-12-24T06:30:35.023Z,0.00
2022-12-24T06:31:35.050Z,0.00
2022-12-24T06:32:35.000Z,0.00
2022-12-24T06:33:34.986Z,0.00
2022-12-24T06:34:35.011Z,0.00
2022-12-24T06:35:34.969Z,0.00
2022-12-24T06:36:34.961Z,0.00
2022-12-24T06:37:34.942Z,0.00
2022-12-24T06:38:34.936Z,0.00
2022-12-24T06:39:34.951Z,0.00
2022-12-24T06:40:34.918Z,0.00
2022-12-24T06:41:34.900Z,0.00
2022-12-24T06:42:34.893Z,0.00
2022-12-24T06:43:34.878Z,0.00
2022-12-24T06:44:34.903Z,0.00
2022-12-24T06:45:34.860Z,0.00
2022-12-24T06:46:34.883Z,0.00
2022-12-24T06:47:34.863Z,0.00
2022-12-24T06:48:34.836Z,0.00
2022-12-24T06:49:34.839Z,0.00
2022-12-24T06:50:34.819Z,0.00
2022-12-24T06:51:34.802Z,0.00
2022-12-24T06:52:34.832Z,0.00
2022-12-24T06:53:34.786Z,0.00
2022-12-24T06:54:34.801Z,0.00
2022-12-24T06:55:34.767Z,0.00
2022-12-24T06:56:34.752Z,0.00
2022-12-24T06:57:34.746Z,0.00
2022-12-24T06:58:34.743Z,0.00
2022-12-24T06:59:34.739Z,0.00
2022-12-24T07:00:34.734Z,0.00
2022-12-24T07:01:34.787Z,0.00
2022-12-24T07:02:34.839Z,0.00
2022-12-24T07:03:34.726Z,0.00
2022-12-24T07:04:34.658Z,0.00
2022-12-24T07:05:34.618Z,1.00
2022-12-24T07:06:34.582Z,1.00
2022-12-24T07:07:34.576Z,1.00
2022-12-24T07:08:34.563Z,1.00
2022-12-24T07:09:34.549Z,1.00
2022-12-24T07:10:34.559Z,1.00
2022-12-24T07:11:34.530Z,1.00
2022-12-24T07:12:34.539Z,1.00
2022-12-24T07:13:34.570Z,1.00
2022-12-24T07:14:34.504Z,1.00
2022-12-24T07:15:34.521Z,1.00
2022-12-24T07:16:34.642Z,1.00
2022-12-24T07:17:34.637Z,0.00
2022-12-24T07:18:34.462Z,1.00
2022-12-24T07:19:34.542Z,0.00
2022-12-24T07:20:34.456Z,1.00
2022-12-24T07:21:34.447Z,1.00
2022-12-24T07:22:34.417Z,1.00
2022-12-24T07:23:34.431Z,2.00
2022-12-24T07:24:34.406Z,2.00
2022-12-24T07:25:34.420Z,2.00
2022-12-24T07:26:34.372Z,2.00
2022-12-24T07:27:34.364Z,2.00
2022-12-24T07:28:34.371Z,1.00
2022-12-24T07:29:34.340Z,2.00
2022-12-24T07:30:34.382Z,3.00
2022-12-24T07:31:34.399Z,1.00
2022-12-24T07:32:34.346Z,3.00
2022-12-24T07:33:34.313Z,2.00
2022-12-24T07:34:34.322Z,5.00
2022-12-24T07:35:34.307Z,3.00
2022-12-24T07:36:34.276Z,9.00
2022-12-24T07:37:34.251Z,11.00
2022-12-24T07:38:34.272Z,14.00
2022-12-24T07:39:34.233Z,14.00
2022-12-24T07:40:34.248Z,10.00
2022-12-24T07:41:39.804Z,3.00
2022-12-24T07:42:34.221Z,10.00
2022-12-24T07:43:34.193Z,7.00
2022-12-24T07:44:34.192Z,16.00
2022-12-24T07:45:34.220Z,7.00
2022-12-24T07:46:34.177Z,34.00
2022-12-24T07:47:34.152Z,5.00
2022-12-24T07:48:34.164Z,6.00
2022-12-24T07:49:34.128Z,23.00
2022-12-24T07:50:41.663Z,12.00
2022-12-24T07:51:40.588Z,6.00
2022-12-24T07:52:40.087Z,9.00
2022-12-24T07:53:34.082Z,21.00
2022-12-24T07:54:34.079Z,30.00
2022-12-24T07:55:34.089Z,41.00
2022-12-24T07:56:34.064Z,30.00
2022-12-24T07:57:34.063Z,16.00
2022-12-24T07:58:34.049Z,12.00
2022-12-24T07:59:34.027Z,29.00
2022-12-24T08:00:34.046Z,48.00
2022-12-24T08:01:34.130Z,14.00
2022-12-24T08:02:34.146Z,14.00
2022-12-24T08:03:34.168Z,38.00
2022-12-24T08:04:33.984Z,43.00
2022-12-24T08:05:33.987Z,31.00
2022-12-24T08:06:33.977Z,51.00
2022-12-24T08:07:33.958Z,21.00
2022-12-24T08:08:33.945Z,15.00
2022-12-24T08:09:33.923Z,16.00
2022-12-24T08:10:33.931Z,40.00
2022-12-24T08:11:33.901Z,44.00
2022-12-24T08:12:33.899Z,46.00
2022-12-24T08:13:33.896Z,35.00
2022-12-24T08:14:33.875Z,23.00
2022-12-24T08:15:33.883Z,26.00
2022-12-24T08:16:33.952Z,22.00
2022-12-24T08:17:33.839Z,49.00
2022-12-24T08:18:33.844Z,66.00
2022-12-24T08:19:33.818Z,39.00
2022-12-24T08:20:33.837Z,60.00
2022-12-24T08:21:33.802Z,127.00
2022-12-24T08:22:33.798Z,119.00
2022-12-24T08:23:33.780Z,153.00
2022-12-24T08:24:40.255Z,79.00
2022-12-24T08:25:41.742Z,41.00
2022-12-24T08:26:40.230Z,78.00
2022-12-24T08:27:33.732Z,73.00
2022-12-24T08:28:33.740Z,78.00
2022-12-24T08:29:33.713Z,89.00
2022-12-24T08:30:33.751Z,92.00
2022-12-24T08:31:33.752Z,152.00
2022-12-24T08:32:33.700Z,55.00
2022-12-24T08:33:33.686Z,50.00
2022-12-24T08:34:33.666Z,166.00
2022-12-24T08:35:33.669Z,65.00
2022-12-24T08:36:33.640Z,39.00
2022-12-24T08:37:33.628Z,74.00
2022-12-24T08:38:33.622Z,85.00
2022-12-24T08:39:33.611Z,138.00
2022-12-24T08:40:33.625Z,79.00
2022-12-24T08:41:33.601Z,171.00
2022-12-24T08:42:33.646Z,69.00
2022-12-24T08:43:33.574Z,55.00
2022-12-24T08:44:33.562Z,73.00
2022-12-24T08:45:39.990Z,188.00
2022-12-24T08:46:33.718Z,208.00
2022-12-24T08:47:33.524Z,104.00
2022-12-24T08:48:33.539Z,304.00
2022-12-24T08:49:33.499Z,161.00
2022-12-24T08:50:33.500Z,68.00
2022-12-24T08:51:33.497Z,42.00
2022-12-24T08:52:33.486Z,76.00
2022-12-24T08:53:33.457Z,46.00
2022-12-24T08:54:33.457Z,61.00
2022-12-24T08:55:33.434Z,116.00
2022-12-24T08:56:33.451Z,166.00
2022-12-24T08:57:33.423Z,220.00
2022-12-24T08:58:33.409Z,120.00
2022-12-24T08:59:33.413Z,73.00
2022-12-24T09:00:33.389Z,57.00
2022-12-24T09:01:33.560Z,59.00
2022-12-24T09:02:33.568Z,66.00
2022-12-24T09:03:33.439Z,139.00
2022-12-24T09:04:33.345Z,96.00
2022-12-24T09:05:33.328Z,127.00
2022-12-24T09:06:33.367Z,114.00
2022-12-24T09:07:33.312Z,80.00
2022-12-24T09:08:33.325Z,89.00
2022-12-24T09:09:37.916Z,144.00
2022-12-24T09:10:33.294Z,100.00
2022-12-24T09:11:33.301Z,44.00
2022-12-24T09:12:33.257Z,89.00
2022-12-24T09:13:33.245Z,96.00
2022-12-24T09:14:33.254Z,75.00
2022-12-24T09:15:33.231Z,136.00
2022-12-24T09:16:33.287Z,165.00
2022-12-24T09:17:33.219Z,178.00
2022-12-24T09:18:33.198Z,248.00
2022-12-24T09:19:33.182Z,193.00
2022-12-24T09:20:33.191Z,218.00
2022-12-24T09:21:33.182Z,221.00
2022-12-24T09:22:33.155Z,278.00
2022-12-24T09:23:33.143Z,310.00
2022-12-24T09:24:33.144Z,330.00
2022-12-24T09:25:33.122Z,251.00
2022-12-24T09:26:33.140Z,340.00
2022-12-24T09:27:33.106Z,415.00
2022-12-24T09:28:33.093Z,515.00
2022-12-24T09:29:33.076Z,340.00
2022-12-24T09:30:33.079Z,364.00
2022-12-24T09:31:33.196Z,473.00
2022-12-24T09:32:33.050Z,360.00
2022-12-24T09:33:33.042Z,264.00
2022-12-24T09:34:33.032Z,208.00
2022-12-24T09:35:33.035Z,257.00
2022-12-24T09:36:33.028Z,261.00
2022-12-24T09:37:33.035Z,178.00
2022-12-24T09:38:33.001Z,247.00
2022-12-24T09:39:32.974Z,178.00
2022-12-24T09:40:32.967Z,310.00
2022-12-24T09:41:32.970Z,274.00
2022-12-24T09:42:32.940Z,293.00
2022-12-24T09:43:32.929Z,265.00
2022-12-24T09:44:32.928Z,304.00
2022-12-24T09:45:33.007Z,283.00
2022-12-24T09:46:33.018Z,129.00
2022-12-24T09:47:32.891Z,272.00
2022-12-24T09:48:32.878Z,431.00
2022-12-24T09:49:32.863Z,245.00
2022-12-24T09:50:32.859Z,292.00
2022-12-24T09:51:32.886Z,407.00
2022-12-24T09:52:32.836Z,285.00
2022-12-24T09:53:32.835Z,418.00
2022-12-24T09:54:32.838Z,510.00
2022-12-24T09:55:32.796Z,331.00
2022-12-24T09:56:32.807Z,396.00
2022-12-24T09:57:32.812Z,202.00
2022-12-24T09:58:32.774Z,371.00
2022-12-24T09:59:32.766Z,425.00
2022-12-24T10:00:32.751Z,289.00
2022-12-24T10:01:32.868Z,513.00
2022-12-24T10:02:32.928Z,350.00
2022-12-24T10:03:32.782Z,420.00
2022-12-24T10:04:32.709Z,330.00
2022-12-24T10:05:32.704Z,204.00
2022-12-24T10:06:32.688Z,305.00
2022-12-24T10:07:32.690Z,237.00
2022-12-24T10:08:32.666Z,319.00
2022-12-24T10:09:32.652Z,498.00
2022-12-24T10:10:32.655Z,162.00
2022-12-24T10:11:32.684Z,474.00
2022-12-24T10:12:32.661Z,591.00
2022-12-24T10:13:32.618Z,649.00
2022-12-24T10:14:32.605Z,440.00
2022-12-24T10:15:39.076Z,753.00
2022-12-24T10:16:32.635Z,539.00
2022-12-24T10:17:40.264Z,155.00
2022-12-24T10:18:32.555Z,595.00
2022-12-24T10:19:32.541Z,322.00
2022-12-24T10:20:32.531Z,492.00
2022-12-24T10:21:32.546Z,474.00
2022-12-24T10:22:32.543Z,364.00
2022-12-24T10:23:32.504Z,350.00
2022-12-24T10:24:32.505Z,390.00
2022-12-24T10:25:32.486Z,310.00
2022-12-24T10:26:32.470Z,309.00
2022-12-24T10:27:32.489Z,209.00
2022-12-24T10:28:32.449Z,288.00
2022-12-24T10:29:32.435Z,338.00
2022-12-24T10:30:32.440Z,339.00
2022-12-24T10:31:32.440Z,378.00
2022-12-24T10:32:32.430Z,286.00
2022-12-24T10:33:32.405Z,654.00
2022-12-24T10:34:32.385Z,385.00
2022-12-24T10:35:32.395Z,802.00
2022-12-24T10:36:32.360Z,667.00
2022-12-24T10:37:32.381Z,367.00
2022-12-24T10:38:32.341Z,370.00
2022-12-24T10:39:32.343Z,615.00
2022-12-24T10:40:32.326Z,514.00
2022-12-24T10:41:32.798Z,534.00
2022-12-24T10:42:32.323Z,406.00
2022-12-24T10:43:32.305Z,541.00
2022-12-24T10:44:32.273Z,543.00
2022-12-24T10:45:32.276Z,294.00
2022-12-24T10:46:32.311Z,524.00
2022-12-24T10:47:32.291Z,587.00
2022-12-24T10:48:38.715Z,586.00
2022-12-24T10:49:32.233Z,414.00
2022-12-24T10:50:38.691Z,301.00
2022-12-24T10:51:38.696Z,126.00
2022-12-24T10:52:32.232Z,299.00
2022-12-24T10:53:32.191Z,287.00
2022-12-24T10:54:32.169Z,555.00
2022-12-24T10:55:32.175Z,404.00
2022-12-24T10:56:32.160Z,395.00
2022-12-24T10:57:32.171Z,352.00
2022-12-24T10:58:32.125Z,292.00
2022-12-24T10:59:32.131Z,470.00
2022-12-24T11:00:36.148Z,572.00
2022-12-24T11:01:32.196Z,557.00
2022-12-24T11:02:32.329Z,771.00
2022-12-24T11:03:32.219Z,833.00
2022-12-24T11:04:32.081Z,884.00
2022-12-24T11:05:32.057Z,779.00
2022-12-24T11:06:32.044Z,678.00
2022-12-24T11:07:32.035Z,786.00
2022-12-24T11:08:32.047Z,567.00
2022-12-24T11:09:32.018Z,472.00
2022-12-24T11:10:31.999Z,659.00
2022-12-24T11:11:31.998Z,608.00
2022-12-24T11:12:31.996Z,393.00
2022-12-24T11:13:39.750Z,399.00
2022-12-24T11:14:31.962Z,535.00
2022-12-24T11:15:32.009Z,444.00
2022-12-24T11:16:32.123Z,462.00
2022-12-24T11:17:31.938Z,575.00
2022-12-24T11:18:31.944Z,502.00
2022-12-24T11:19:31.984Z,393.00
2022-12-24T11:20:31.909Z,318.00
2022-12-24T11:21:31.909Z,561.00
2022-12-24T11:22:39.856Z,621.00
2022-12-24T11:23:31.876Z,450.00
2022-12-24T11:24:31.848Z,399.00
2022-12-24T11:25:31.853Z,624.00
2022-12-24T11:26:31.827Z,557.00
2022-12-24T11:27:31.827Z,361.00
2022-12-24T11:28:31.828Z,789.00
2022-12-24T11:29:31.797Z,545.00
2022-12-24T11:30:32.096Z,574.00
2022-12-24T11:31:31.909Z,316.00
2022-12-24T11:32:31.761Z,585.00
2022-12-24T11:33:31.815Z,583.00
2022-12-24T11:34:31.748Z,660.00
2022-12-24T11:35:31.728Z,423.00
2022-12-24T11:36:31.720Z,198.00
2022-12-24T11:37:31.714Z,547.00
2022-12-24T11:38:31.729Z,552.00
2022-12-24T11:39:31.688Z,553.00
2022-12-24T11:40:31.677Z,505.00
2022-12-24T11:41:31.676Z,469.00
2022-12-24T11:42:31.663Z,528.00
2022-12-24T11:43:31.677Z,490.00
2022-12-24T11:44:31.634Z,369.00
2022-12-24T11:45:31.630Z,342.00
2022-12-24T11:46:31.702Z,317.00
2022-12-24T11:47:31.624Z,377.00
2022-12-24T11:48:31.639Z,323.00
2022-12-24T11:49:31.585Z,352.00
2022-12-24T11:50:31.567Z,306.00
2022-12-24T11:51:31.570Z,311.00
2022-12-24T11:52:31.561Z,306.00
2022-12-24T11:53:31.572Z,325.00
2022-12-24T11:54:31.523Z,326.00
2022-12-24T11:55:31.530Z,189.00
2022-12-24T11:56:31.505Z,304.00
2022-12-24T11:57:31.511Z,168.00
2022-12-24T11:58:31.518Z,406.00
2022-12-24T11:59:31.494Z,798.00
2022-12-24T12:00:31.483Z,718.00
2022-12-24T12:01:31.569Z,245.00
2022-12-24T12:02:31.484Z,369.00
2022-12-24T12:03:31.485Z,350.00
2022-12-24T12:04:31.418Z,390.00
2022-12-24T12:05:31.408Z,279.00
2022-12-24T12:06:31.416Z,336.00
2022-12-24T12:07:31.389Z,382.00
2022-12-24T12:08:31.398Z,376.00
2022-12-24T12:09:31.436Z,288.00
2022-12-24T12:10:31.359Z,213.00
2022-12-24T12:11:31.367Z,388.00
2022-12-24T12:12:31.345Z,209.00
2022-12-24T12:13:31.353Z,201.00
2022-12-24T12:14:31.331Z,187.00
2022-12-24T12:15:31.312Z,126.00
2022-12-24T12:16:31.329Z,81.00
2022-12-24T12:17:31.283Z,133.00
2022-12-24T12:18:31.309Z,225.00
2022-12-24T12:19:31.261Z,599.00
2022-12-24T12:20:31.254Z,481.00
2022-12-24T12:21:31.239Z,510.00
2022-12-24T12:22:31.228Z,305.00
2022-12-24T12:23:31.243Z,518.00
2022-12-24T12:24:32.516Z,443.00
2022-12-24T12:25:31.198Z,685.00
2022-12-24T12:26:31.210Z,631.00
2022-12-24T12:27:31.172Z,376.00
2022-12-24T12:28:31.184Z,684.00
2022-12-24T12:29:31.152Z,501.00
2022-12-24T12:30:31.138Z,388.00
2022-12-24T12:31:31.258Z,258.00
2022-12-24T12:32:31.167Z,456.00
2022-12-24T12:33:31.143Z,898.00
2022-12-24T12:34:31.092Z,594.00
2022-12-24T12:35:31.101Z,577.00
2022-12-24T12:36:31.077Z,396.00
2022-12-24T12:37:31.070Z,580.00
2022-12-24T12:38:38.840Z,619.00
2022-12-24T12:39:37.530Z,473.00
2022-12-24T12:40:31.035Z,612.00
2022-12-24T12:41:31.039Z,709.00
2022-12-24T12:42:31.024Z,512.00
2022-12-24T12:43:31.032Z,622.00
2022-12-24T12:44:30.999Z,654.00
2022-12-24T12:45:30.984Z,593.00
2022-12-24T12:46:30.996Z,543.00
2022-12-24T12:47:30.970Z,587.00
2022-12-24T12:48:30.978Z,477.00
2022-12-24T12:49:30.940Z,512.00
2022-12-24T12:50:30.934Z,474.00
2022-12-24T12:51:30.921Z,475.00
2022-12-24T12:52:30.941Z,459.00
2022-12-24T12:53:30.904Z,469.00
2022-12-24T12:54:30.908Z,410.00
2022-12-24T12:55:30.891Z,396.00
2022-12-24T12:56:30.872Z,349.00
2022-12-24T12:57:30.859Z,315.00
2022-12-24T12:58:30.865Z,300.00
2022-12-24T12:59:30.866Z,256.00